Angler Guide Weather for Natashquan -
Natashquan, Québec Current Weather Conditions
Enter your "Place, State", US Zip Code or ICAO:  
Forecast Information Radar Information
Natashquan, Québec, Canada  Lat: 50.18N, Lon: 61.82W
ICAO Used: CYGV
Current Conditions
Updated:
Sun & Moon Information:
Temp: N/A
Humidity: N/A
Wind Speed: N/A
Barometer: N/A
Dewpoint: N/A
Heat Index: N/A
Wind Chill: N/A
Civil Twilight: 6:09 AM EDT
Moonrise: 11:16 AM EDT Moon Phase:
Waxing Crescent Moon
Waxing Crescent Moon
Moonset: 8:11 PM EDT
Sunrise: 6:42 AM EDT
Sunset: 4:58 PM EDT
Civil Twilight: 5:31 PM EDT
Forecast for Natashquan, QC:
(Forecast based on TAF for )
0342 PM EDT MON NOV 06 2006
  
AFTERNOONEVENINGOVERNIGHT
PARTLY CLOUDYPARTLY CLOUDYRAIN AND (?:LIGHT)?\s*?SNOW
Partly
Cloudy
Partly
Cloudy
Rain
And (?:Light)?\S*?Snow
TAF based forecast:
Dated: 0342 PM EDT MON NOV 06 2006
Afternoon...Partly cloudy with winds from the south south west at 7 mph.
Evening...Partly cloudy with winds from the south south west at 7 mph.
Overnight...Partly cloudy with winds from the south south west at 7 mph. Then turning overcast with light showers,rain and snow with winds from the south west at 12 mph. Possible periods of overcast with /a.
Original Encoded TAF:
Dated: 0342 PM EDT MON NOV 06 2006
2006/11/06 19:42
CYGV 061942Z 062008 25006KT P6SM SCT040 FM0400Z 22010KT P6SM -SHRASN OVC015 TEMPO 0408 P6SM NSW SCT015 OVC030=




Powered by Angler Guide.com
Copyright © 2007, all rights reserved.